sensor_id;sensor_type;location;lat;lon;timestamp;pressure;altitude;pressure_sealevel;temperature;humidity
61528;BME280;47395;42.032;-8.634;2023-10-13T00:01:35;75543.50;;;-148.63;38.12
61528;BME280;47395;42.032;-8.634;2023-10-13T00:03:36;75549.50;;;-148.63;38.13
61528;BME280;47395;42.032;-8.634;2023-10-13T00:05:37;75557.50;;;-148.63;38.14
61528;BME280;47395;42.032;-8.634;2023-10-13T00:07:38;75569.50;;;-148.63;38.45
61528;BME280;47395;42.032;-8.634;2023-10-13T00:09:38;75559.50;;;-148.63;38.36
61528;BME280;47395;42.032;-8.634;2023-10-13T00:11:41;75561.50;;;-148.63;38.56
61528;BME280;47395;42.032;-8.634;2023-10-13T00:13:45;75567.50;;;-148.63;38.72
61528;BME280;47395;42.032;-8.634;2023-10-13T00:15:52;75551.50;;;-148.63;38.78
61528;BME280;47395;42.032;-8.634;2023-10-13T00:17:59;75559.50;;;-148.63;38.94
61528;BME280;47395;42.032;-8.634;2023-10-13T00:20:00;75555.50;;;-148.63;38.96
61528;BME280;47395;42.032;-8.634;2023-10-13T00:22:01;75561.50;;;-148.63;38.99
61528;BME280;47395;42.032;-8.634;2023-10-13T00:24:09;75569.50;;;-148.63;39.16
61528;BME280;47395;42.032;-8.634;2023-10-13T00:26:14;75557.50;;;-148.63;39.16
61528;BME280;47395;42.032;-8.634;2023-10-13T00:28:27;75553.50;;;-148.63;39.16
61528;BME280;47395;42.032;-8.634;2023-10-13T00:30:35;75563.50;;;-148.63;39.35
61528;BME280;47395;42.032;-8.634;2023-10-13T00:32:37;75565.50;;;-148.63;39.36
61528;BME280;47395;42.032;-8.634;2023-10-13T00:34:40;75553.50;;;-148.63;39.37
61528;BME280;47395;42.032;-8.634;2023-10-13T00:36:41;75551.50;;;-148.63;39.30
61528;BME280;47395;42.032;-8.634;2023-10-13T00:38:49;75541.50;;;-148.63;38.85
61528;BME280;47395;42.032;-8.634;2023-10-13T00:40:53;75535.50;;;-148.63;38.87
61528;BME280;47395;42.032;-8.634;2023-10-13T00:42:54;75541.50;;;-148.63;39.16
61528;BME280;47395;42.032;-8.634;2023-10-13T00:44:55;75549.50;;;-148.63;39.46
61528;BME280;47395;42.032;-8.634;2023-10-13T00:46:56;75549.50;;;-148.63;39.39
61528;BME280;47395;42.032;-8.634;2023-10-13T00:48:57;75561.50;;;-148.63;39.53
61528;BME280;47395;42.032;-8.634;2023-10-13T00:51:05;75559.50;;;-148.63;39.57
61528;BME280;47395;42.032;-8.634;2023-10-13T00:53:18;75549.50;;;-148.63;39.77
61528;BME280;47395;42.032;-8.634;2023-10-13T00:55:23;75551.50;;;-148.63;39.76
61528;BME280;47395;42.032;-8.634;2023-10-13T00:57:24;75571.50;;;-148.63;39.97
61528;BME280;47395;42.032;-8.634;2023-10-13T00:59:27;75575.50;;;-148.63;39.97
61528;BME280;47395;42.032;-8.634;2023-10-13T01:01:29;75575.50;;;-148.63;40.08
61528;BME280;47395;42.032;-8.634;2023-10-13T01:03:33;75565.50;;;-148.63;40.02
61528;BME280;47395;42.032;-8.634;2023-10-13T01:05:34;75567.50;;;-148.63;40.58
61528;BME280;47395;42.032;-8.634;2023-10-13T01:07:37;75569.50;;;-148.63;40.37
61528;BME280;47395;42.032;-8.634;2023-10-13T01:09:42;75587.53;;;-148.63;40.66
61528;BME280;47395;42.032;-8.634;2023-10-13T01:11:45;75577.50;;;-148.63;40.79
61528;BME280;47395;42.032;-8.634;2023-10-13T01:13:48;75575.50;;;-148.63;40.66
61528;BME280;47395;42.032;-8.634;2023-10-13T01:15:51;75581.53;;;-148.63;41.01
61528;BME280;47395;42.032;-8.634;2023-10-13T01:17:52;75577.50;;;-148.63;41.23
61528;BME280;47395;42.032;-8.634;2023-10-13T01:19:57;75569.50;;;-148.63;41.28
61528;BME280;47395;42.032;-8.634;2023-10-13T01:21:59;75549.50;;;-148.63;41.04
61528;BME280;47395;42.032;-8.634;2023-10-13T01:24:04;75561.50;;;-148.63;41.28
61528;BME280;47395;42.032;-8.634;2023-10-13T01:26:08;75571.50;;;-148.63;41.55
61528;BME280;47395;42.032;-8.634;2023-10-13T01:28:11;75559.50;;;-148.63;41.43
61528;BME280;47395;42.032;-8.634;2023-10-13T01:30:17;75555.50;;;-148.63;41.81
61528;BME280;47395;42.032;-8.634;2023-10-13T01:32:22;75553.50;;;-148.63;41.92
61528;BME280;47395;42.032;-8.634;2023-10-13T01:34:24;75551.50;;;-148.63;42.32
61528;BME280;47395;42.032;-8.634;2023-10-13T01:36:28;75563.50;;;-148.63;42.81
61528;BME280;47395;42.032;-8.634;2023-10-13T01:38:35;75569.50;;;-148.63;43.02
61528;BME280;47395;42.032;-8.634;2023-10-13T01:40:38;75569.50;;;-148.63;43.33
61528;BME280;47395;42.032;-8.634;2023-10-13T01:42:39;75547.50;;;-148.63;43.21
61528;BME280;47395;42.032;-8.634;2023-10-13T01:44:40;75569.50;;;-148.63;43.70
61528;BME280;47395;42.032;-8.634;2023-10-13T01:46:41;75561.50;;;-148.63;43.73
61528;BME280;47395;42.032;-8.634;2023-10-13T01:48:43;75573.50;;;-148.63;44.09
61528;BME280;47395;42.032;-8.634;2023-10-13T01:50:45;75577.50;;;-148.63;44.20
61528;BME280;47395;42.032;-8.634;2023-10-13T01:52:56;75573.50;;;-148.63;44.29
61528;BME280;47395;42.032;-8.634;2023-10-13T01:55:13;75565.50;;;-148.63;44.25
61528;BME280;47395;42.032;-8.634;2023-10-13T01:57:20;75557.50;;;-148.63;43.78
61528;BME280;47395;42.032;-8.634;2023-10-13T01:59:24;75539.50;;;-148.63;43.55
61528;BME280;47395;42.032;-8.634;2023-10-13T02:01:33;75537.50;;;-148.63;43.63
61528;BME280;47395;42.032;-8.634;2023-10-13T02:03:35;75541.50;;;-148.63;43.74
61528;BME280;47395;42.032;-8.634;2023-10-13T02:05:47;75545.50;;;-148.63;44.16
61528;BME280;47395;42.032;-8.634;2023-10-13T02:07:48;75563.50;;;-148.63;44.11
61528;BME280;47395;42.032;-8.634;2023-10-13T02:09:49;75567.50;;;-148.63;44.19
61528;BME280;47395;42.032;-8.634;2023-10-13T02:11:49;75559.50;;;-148.63;44.47
61528;BME280;47395;42.032;-8.634;2023-10-13T02:13:54;75545.50;;;-148.63;44.01
61528;BME280;47395;42.032;-8.634;2023-10-13T02:15:57;75545.50;;;-148.63;43.87
61528;BME280;47395;42.032;-8.634;2023-10-13T02:18:02;75539.50;;;-148.63;44.11
61528;BME280;47395;42.032;-8.634;2023-10-13T02:20:06;75543.50;;;-148.63;44.01
61528;BME280;47395;42.032;-8.634;2023-10-13T02:22:08;75547.50;;;-148.63;44.33
61528;BME280;47395;42.032;-8.634;2023-10-13T02:24:11;75527.50;;;-148.63;44.18
61528;BME280;47395;42.032;-8.634;2023-10-13T02:26:18;75503.50;;;-148.63;43.90
61528;BME280;47395;42.032;-8.634;2023-10-13T02:28:31;75497.50;;;-148.63;43.79
61528;BME280;47395;42.032;-8.634;2023-10-13T02:30:42;75489.50;;;-148.63;43.93
61528;BME280;47395;42.032;-8.634;2023-10-13T02:32:46;75497.50;;;-148.63;44.31
61528;BME280;47395;42.032;-8.634;2023-10-13T02:34:47;75501.50;;;-148.63;44.20
61528;BME280;47395;42.032;-8.634;2023-10-13T02:36:48;75497.50;;;-148.63;44.20
61528;BME280;47395;42.032;-8.634;2023-10-13T02:38:49;75499.50;;;-148.63;44.56
61528;BME280;47395;42.032;-8.634;2023-10-13T02:40:51;75503.50;;;-148.63;45.36
61528;BME280;47395;42.032;-8.634;2023-10-13T02:42:54;75499.50;;;-148.63;44.93
61528;BME280;47395;42.032;-8.634;2023-10-13T02:44:55;75505.50;;;-148.63;45.29
61528;BME280;47395;42.032;-8.634;2023-10-13T02:46:58;75509.50;;;-148.63;45.02
61528;BME280;47395;42.032;-8.634;2023-10-13T02:48:59;75525.50;;;-148.63;45.48
61528;BME280;47395;42.032;-8.634;2023-10-13T02:51:03;75525.50;;;-148.63;45.68
61528;BME280;47395;42.032;-8.634;2023-10-13T02:53:15;75527.50;;;-148.63;46.02
61528;BME280;47395;42.032;-8.634;2023-10-13T02:55:19;75527.50;;;-148.63;46.72
61528;BME280;47395;42.032;-8.634;2023-10-13T02:57:25;75515.50;;;-148.63;46.72
61528;BME280;47395;42.032;-8.634;2023-10-13T02:59:27;75527.50;;;-148.63;46.95
61528;BME280;47395;42.032;-8.634;2023-10-13T03:01:35;75523.50;;;-148.63;47.00
61528;BME280;47395;42.032;-8.634;2023-10-13T03:03:36;75523.50;;;-148.63;47.24
61528;BME280;47395;42.032;-8.634;2023-10-13T03:05:37;75517.50;;;-148.63;47.38
61528;BME280;47395;42.032;-8.634;2023-10-13T03:07:40;75517.50;;;-148.63;47.21
61528;BME280;47395;42.032;-8.634;2023-10-13T03:09:43;75525.50;;;-148.63;47.27
61528;BME280;47395;42.032;-8.634;2023-10-13T03:11:51;75527.50;;;-148.63;47.27
61528;BME280;47395;42.032;-8.634;2023-10-13T03:13:51;75535.50;;;-148.63;47.35
61528;BME280;47395;42.032;-8.634;2023-10-13T03:15:53;75533.50;;;-148.63;47.19
61528;BME280;47395;42.032;-8.634;2023-10-13T03:17:55;75535.50;;;-148.63;47.44
61528;BME280;47395;42.032;-8.634;2023-10-13T03:19:59;75531.50;;;-148.63;47.28
61528;BME280;47395;42.032;-8.634;2023-10-13T03:22:01;75537.50;;;-148.63;47.18
61528;BME280;47395;42.032;-8.634;2023-10-13T03:24:14;75533.50;;;-148.63;47.46
61528;BME280;47395;42.032;-8.634;2023-10-13T03:26:15;75537.50;;;-148.63;47.73
61528;BME280;47395;42.032;-8.634;2023-10-13T03:28:17;75535.50;;;-148.63;47.44
61528;BME280;47395;42.032;-8.634;2023-10-13T03:30:21;75533.50;;;-148.63;47.73
61528;BME280;47395;42.032;-8.634;2023-10-13T03:32:22;75539.50;;;-148.63;47.73
61528;BME280;47395;42.032;-8.634;2023-10-13T03:34:26;75545.50;;;-148.63;47.81
61528;BME280;47395;42.032;-8.634;2023-10-13T03:36:30;75533.50;;;-148.63;47.73
61528;BME280;47395;42.032;-8.634;2023-10-13T03:38:56;75531.50;;;-148.63;47.91
61528;BME280;47395;42.032;-8.634;2023-10-13T03:40:57;75529.50;;;-148.63;47.81
61528;BME280;47395;42.032;-8.634;2023-10-13T03:43:20;75533.50;;;-148.63;47.84
61528;BME280;47395;42.032;-8.634;2023-10-13T03:45:25;75539.50;;;-148.63;47.98
61528;BME280;47395;42.032;-8.634;2023-10-13T03:47:25;75531.50;;;-148.63;48.09
61528;BME280;47395;42.032;-8.634;2023-10-13T03:49:32;75543.50;;;-148.63;48.49
61528;BME280;47395;42.032;-8.634;2023-10-13T03:51:39;75549.50;;;-148.63;48.69
61528;BME280;47395;42.032;-8.634;2023-10-13T03:53:40;75541.50;;;-148.63;49.08
61528;BME280;47395;42.032;-8.634;2023-10-13T03:55:53;75537.50;;;-148.63;49.39
61528;BME280;47395;42.032;-8.634;2023-10-13T03:58:08;75549.50;;;-148.63;49.84
61528;BME280;47395;42.032;-8.634;2023-10-13T04:00:11;75541.50;;;-148.63;50.06
61528;BME280;47395;42.032;-8.634;2023-10-13T04:07:31;75549.50;;;-148.63;51.41
61528;BME280;47395;42.032;-8.634;2023-10-13T04:10:00;75561.50;;;-148.63;52.58
61528;BME280;47395;42.032;-8.634;2023-10-13T04:12:20;75577.50;;;-148.63;53.34
61528;BME280;47395;42.032;-8.634;2023-10-13T04:14:47;75595.53;;;-148.63;54.03
61528;BME280;47395;42.032;-8.634;2023-10-13T04:16:56;75601.53;;;-148.63;54.39
61528;BME280;47395;42.032;-8.634;2023-10-13T04:18:58;75609.53;;;-148.63;54.59
61528;BME280;47395;42.032;-8.634;2023-10-13T04:20:59;75615.53;;;-148.63;54.84
61528;BME280;47395;42.032;-8.634;2023-10-13T04:23:19;75617.53;;;-148.63;54.90
61528;BME280;47395;42.032;-8.634;2023-10-13T04:25:25;75615.53;;;-148.63;55.37
61528;BME280;47395;42.032;-8.634;2023-10-13T04:28:14;75613.53;;;-148.63;55.45
61528;BME280;47395;42.032;-8.634;2023-10-13T04:30:36;75621.53;;;-148.63;55.73
61528;BME280;47395;42.032;-8.634;2023-10-13T04:32:53;75631.53;;;-148.63;56.23
61528;BME280;47395;42.032;-8.634;2023-10-13T04:35:13;75647.53;;;-148.63;56.31
61528;BME280;47395;42.032;-8.634;2023-10-13T04:37:23;75645.53;;;-148.63;56.99
61528;BME280;47395;42.032;-8.634;2023-10-13T04:39:30;75655.53;;;-148.63;57.16
61528;BME280;47395;42.032;-8.634;2023-10-13T04:41:39;75645.53;;;-148.63;56.63
61528;BME280;47395;42.032;-8.634;2023-10-13T04:43:43;75657.53;;;-148.63;57.08
61528;BME280;47395;42.032;-8.634;2023-10-13T04:45:59;75673.53;;;-148.63;57.15
61528;BME280;47395;42.032;-8.634;2023-10-13T04:48:14;75677.56;;;-148.63;56.64
61528;BME280;47395;42.032;-8.634;2023-10-13T04:50:28;75685.56;;;-148.63;56.78
61528;BME280;47395;42.032;-8.634;2023-10-13T04:52:41;75679.56;;;-148.63;57.11
61528;BME280;47395;42.032;-8.634;2023-10-13T04:55:02;75685.56;;;-148.63;56.53
61528;BME280;47395;42.032;-8.634;2023-10-13T04:57:37;75693.56;;;-148.63;56.30
61528;BME280;47395;42.032;-8.634;2023-10-13T04:59:50;75689.56;;;-148.63;56.39
61528;BME280;47395;42.032;-8.634;2023-10-13T05:02:31;75689.56;;;-148.63;56.58
61528;BME280;47395;42.032;-8.634;2023-10-13T05:04:44;75689.56;;;-148.63;56.36
61528;BME280;47395;42.032;-8.634;2023-10-13T05:07:04;75697.56;;;-148.63;56.50
61528;BME280;47395;42.032;-8.634;2023-10-13T05:09:23;75697.56;;;-148.63;56.60
61528;BME280;47395;42.032;-8.634;2023-10-13T05:11:42;75705.56;;;-148.63;56.66
61528;BME280;47395;42.032;-8.634;2023-10-13T05:14:02;75695.56;;;-148.63;57.03
61528;BME280;47395;42.032;-8.634;2023-10-13T05:16:21;75693.56;;;-148.63;56.82
61528;BME280;47395;42.032;-8.634;2023-10-13T05:18:40;75693.56;;;-148.63;57.14
61528;BME280;47395;42.032;-8.634;2023-10-13T05:20:59;75689.56;;;-148.63;56.64
61528;BME280;47395;42.032;-8.634;2023-10-13T05:23:18;75689.56;;;-148.63;56.70
61528;BME280;47395;42.032;-8.634;2023-10-13T05:25:38;75687.56;;;-148.63;56.43
61528;BME280;47395;42.032;-8.634;2023-10-13T05:27:57;75685.56;;;-148.63;56.39
61528;BME280;47395;42.032;-8.634;2023-10-13T05:30:17;75689.56;;;-148.63;56.28
61528;BME280;47395;42.032;-8.634;2023-10-13T05:32:36;75689.56;;;-148.63;56.28
61528;BME280;47395;42.032;-8.634;2023-10-13T05:34:55;75685.56;;;-148.63;56.52
61528;BME280;47395;42.032;-8.634;2023-10-13T05:37:14;75691.56;;;-148.63;56.55
61528;BME280;47395;42.032;-8.634;2023-10-13T05:39:34;75689.56;;;-148.63;56.86
61528;BME280;47395;42.032;-8.634;2023-10-13T05:41:53;75689.56;;;-148.63;56.74
61528;BME280;47395;42.032;-8.634;2023-10-13T05:44:12;75701.56;;;-148.63;56.27
61528;BME280;47395;42.032;-8.634;2023-10-13T05:46:31;75695.56;;;-148.63;56.51
61528;BME280;47395;42.032;-8.634;2023-10-13T05:48:58;75709.56;;;-148.63;56.97
61528;BME280;47395;42.032;-8.634;2023-10-13T05:51:19;75721.56;;;-148.63;57.29
61528;BME280;47395;42.032;-8.634;2023-10-13T05:53:56;75745.56;;;-148.63;57.86
61528;BME280;47395;42.032;-8.634;2023-10-13T05:56:14;75751.56;;;-148.63;57.97
61528;BME280;47395;42.032;-8.634;2023-10-13T05:58:33;75765.59;;;-148.63;58.68
61528;BME280;47395;42.032;-8.634;2023-10-13T06:00:53;75777.59;;;-148.63;59.03
61528;BME280;47395;42.032;-8.634;2023-10-13T06:03:12;75789.59;;;-148.63;58.85
61528;BME280;47395;42.032;-8.634;2023-10-13T06:05:31;75795.59;;;-148.63;59.24
61528;BME280;47395;42.032;-8.634;2023-10-13T06:07:51;75807.59;;;-148.63;60.00
61528;BME280;47395;42.032;-8.634;2023-10-13T06:10:11;75809.59;;;-148.63;60.19
61528;BME280;47395;42.032;-8.634;2023-10-13T06:12:30;75823.59;;;-148.63;60.18
61528;BME280;47395;42.032;-8.634;2023-10-13T06:14:49;75835.59;;;-148.63;60.98
61528;BME280;47395;42.032;-8.634;2023-10-13T06:17:08;75837.59;;;-148.63;61.16
61528;BME280;47395;42.032;-8.634;2023-10-13T06:19:27;75833.59;;;-148.63;61.54
61528;BME280;47395;42.032;-8.634;2023-10-13T06:21:47;75841.59;;;-148.63;61.91
61528;BME280;47395;42.032;-8.634;2023-10-13T06:24:07;75851.59;;;-148.63;61.85
61528;BME280;47395;42.032;-8.634;2023-10-13T06:26:26;75851.59;;;-148.63;62.49
61528;BME280;47395;42.032;-8.634;2023-10-13T06:28:45;75857.63;;;-148.63;62.22
61528;BME280;47395;42.032;-8.634;2023-10-13T06:30:57;75865.63;;;-148.63;62.73
61528;BME280;47395;42.032;-8.634;2023-10-13T06:32:58;75873.63;;;-148.63;63.10
61528;BME280;47395;42.032;-8.634;2023-10-13T06:34:59;75877.63;;;-148.63;63.23
61528;BME280;47395;42.032;-8.634;2023-10-13T06:37:06;75885.63;;;-148.63;63.67
61528;BME280;47395;42.032;-8.634;2023-10-13T06:39:23;75873.63;;;-148.63;63.83
61528;BME280;47395;42.032;-8.634;2023-10-13T06:41:35;75873.63;;;-148.63;63.61
61528;BME280;47395;42.032;-8.634;2023-10-13T06:43:42;75849.59;;;-148.63;63.55
61528;BME280;47395;42.032;-8.634;2023-10-13T06:45:47;75853.63;;;-148.63;63.94
61528;BME280;47395;42.032;-8.634;2023-10-13T06:48:00;75843.59;;;-148.63;64.09
61528;BME280;47395;42.032;-8.634;2023-10-13T06:50:01;75853.63;;;-148.63;64.11
61528;BME280;47395;42.032;-8.634;2023-10-13T06:52:03;75833.59;;;-148.63;63.97
61528;BME280;47395;42.032;-8.634;2023-10-13T06:54:07;75827.59;;;-148.63;63.92
61528;BME280;47395;42.032;-8.634;2023-10-13T06:56:19;75819.59;;;-148.63;64.03
61528;BME280;47395;42.032;-8.634;2023-10-13T06:58:28;75809.59;;;-148.63;63.58
61528;BME280;47395;42.032;-8.634;2023-10-13T07:00:29;75803.59;;;-148.63;63.55
61528;BME280;47395;42.032;-8.634;2023-10-13T07:02:33;75805.59;;;-148.63;63.39
61528;BME280;47395;42.032;-8.634;2023-10-13T07:04:36;75801.59;;;-148.63;63.31
61528;BME280;47395;42.032;-8.634;2023-10-13T07:06:41;75793.59;;;-148.63;63.07
61528;BME280;47395;42.032;-8.634;2023-10-13T07:08:49;75773.59;;;-148.63;62.46
61528;BME280;47395;42.032;-8.634;2023-10-13T07:10:53;75767.59;;;-148.63;62.19
61528;BME280;47395;42.032;-8.634;2023-10-13T07:13:14;75755.56;;;-148.63;61.58
61528;BME280;47395;42.032;-8.634;2023-10-13T07:15:15;75745.56;;;-148.63;61.44
61528;BME280;47395;42.032;-8.634;2023-10-13T07:17:26;75723.56;;;-148.63;61.20
61528;BME280;47395;42.032;-8.634;2023-10-13T07:19:28;75717.56;;;-148.63;60.88
61528;BME280;47395;42.032;-8.634;2023-10-13T07:21:29;75711.56;;;-148.63;60.69
61528;BME280;47395;42.032;-8.634;2023-10-13T07:23:34;75697.56;;;-148.63;60.33
61528;BME280;47395;42.032;-8.634;2023-10-13T07:25:36;75697.56;;;-148.63;60.27
61528;BME280;47395;42.032;-8.634;2023-10-13T07:27:38;75667.53;;;-148.63;59.66
61528;BME280;47395;42.032;-8.634;2023-10-13T07:29:39;75667.53;;;-148.63;59.27
61528;BME280;47395;42.032;-8.634;2023-10-13T07:31:42;75669.53;;;-148.63;59.23
61528;BME280;47395;42.032;-8.634;2023-10-13T07:33:45;75685.56;;;-148.63;59.23
61528;BME280;47395;42.032;-8.634;2023-10-13T07:35:46;75671.53;;;-148.63;59.68
61528;BME280;47395;42.032;-8.634;2023-10-13T07:37:52;75689.56;;;-148.63;60.80
61528;BME280;47395;42.032;-8.634;2023-10-13T07:39:54;75711.56;;;-148.63;61.89
61528;BME280;47395;42.032;-8.634;2023-10-13T07:41:58;75743.56;;;-148.63;62.07
61528;BME280;47395;42.032;-8.634;2023-10-13T07:44:06;75757.56;;;-148.63;63.13
61528;BME280;47395;42.032;-8.634;2023-10-13T07:46:12;75773.59;;;-148.63;62.99
61528;BME280;47395;42.032;-8.634;2023-10-13T07:48:13;75771.59;;;-148.63;62.89
61528;BME280;47395;42.032;-8.634;2023-10-13T07:50:20;75779.59;;;-148.63;63.68
61528;BME280;47395;42.032;-8.634;2023-10-13T07:52:25;75817.59;;;-148.63;64.03
61528;BME280;47395;42.032;-8.634;2023-10-13T07:54:41;75881.63;;;-148.63;67.11
61528;BME280;47395;42.032;-8.634;2023-10-13T07:56:44;75905.63;;;-148.63;68.85
61528;BME280;47395;42.032;-8.634;2023-10-13T07:58:45;75947.66;;;-148.63;70.03
61528;BME280;47395;42.032;-8.634;2023-10-13T08:01:00;75975.66;;;-148.63;71.43
61528;BME280;47395;42.032;-8.634;2023-10-13T08:03:07;75987.66;;;-148.63;72.51
61528;BME280;47395;42.032;-8.634;2023-10-13T08:05:17;75983.66;;;-148.63;72.26
61528;BME280;47395;42.032;-8.634;2023-10-13T08:07:40;75967.66;;;-148.63;72.97
61528;BME280;47395;42.032;-8.634;2023-10-13T08:09:43;75975.66;;;-148.63;73.55
61528;BME280;47395;42.032;-8.634;2023-10-13T08:11:52;75983.66;;;-148.63;73.99
61528;BME280;47395;42.032;-8.634;2023-10-13T08:13:59;75997.66;;;-148.63;74.07
61528;BME280;47395;42.032;-8.634;2023-10-13T08:16:01;75993.66;;;-148.63;73.79
61528;BME280;47395;42.032;-8.634;2023-10-13T08:18:08;76005.66;;;-148.63;74.06
61528;BME280;47395;42.032;-8.634;2023-10-13T08:20:18;76009.66;;;-148.63;74.37
61528;BME280;47395;42.032;-8.634;2023-10-13T08:22:18;76017.69;;;-148.63;74.42
61528;BME280;47395;42.032;-8.634;2023-10-13T08:24:28;76015.69;;;-148.63;74.15
61528;BME280;47395;42.032;-8.634;2023-10-13T08:26:58;76005.66;;;-148.63;74.53
61528;BME280;47395;42.032;-8.634;2023-10-13T08:29:17;76013.69;;;-148.63;74.15
61528;BME280;47395;42.032;-8.634;2023-10-13T08:31:41;76025.69;;;-148.63;73.98
61528;BME280;47395;42.032;-8.634;2023-10-13T08:33:43;76033.69;;;-148.63;73.57
61528;BME280;47395;42.032;-8.634;2023-10-13T08:35:47;76045.69;;;-148.63;73.77
61528;BME280;47395;42.032;-8.634;2023-10-13T08:38:17;76045.69;;;-148.63;73.99
61528;BME280;47395;42.032;-8.634;2023-10-13T08:40:19;76041.69;;;-148.63;74.44
61528;BME280;47395;42.032;-8.634;2023-10-13T08:42:41;76045.69;;;-148.63;74.55
61528;BME280;47395;42.032;-8.634;2023-10-13T08:44:45;76051.69;;;-148.63;75.28
61528;BME280;47395;42.032;-8.634;2023-10-13T08:46:46;76059.69;;;-148.63;75.39
61528;BME280;47395;42.032;-8.634;2023-10-13T08:49:05;76063.69;;;-148.63;76.01
61528;BME280;47395;42.032;-8.634;2023-10-13T08:51:14;76065.69;;;-148.63;76.37
61528;BME280;47395;42.032;-8.634;2023-10-13T08:53:33;76073.69;;;-148.63;76.29
61528;BME280;47395;42.032;-8.634;2023-10-13T08:55:48;76067.69;;;-148.63;76.16
61528;BME280;47395;42.032;-8.634;2023-10-13T08:58:05;76053.69;;;-148.63;76.50
61528;BME280;47395;42.032;-8.634;2023-10-13T09:00:14;76047.69;;;-148.63;76.44
61528;BME280;47395;42.032;-8.634;2023-10-13T09:02:47;76045.69;;;-148.63;76.55
61528;BME280;47395;42.032;-8.634;2023-10-13T09:05:11;76033.69;;;-148.63;76.65
61528;BME280;47395;42.032;-8.634;2023-10-13T09:07:44;76005.66;;;-148.63;75.90
61528;BME280;47395;42.032;-8.634;2023-10-13T09:09:50;76001.66;;;-148.63;75.25
61528;BME280;47395;42.032;-8.634;2023-10-13T09:11:51;76009.66;;;-148.63;74.74
61528;BME280;47395;42.032;-8.634;2023-10-13T09:13:54;76011.69;;;-148.63;74.63
61528;BME280;47395;42.032;-8.634;2023-10-13T09:15:55;76039.69;;;-148.63;74.35
61528;BME280;47395;42.032;-8.634;2023-10-13T09:18:02;76071.69;;;-148.63;74.28
61528;BME280;47395;42.032;-8.634;2023-10-13T09:20:16;76073.69;;;-148.63;75.07
61528;BME280;47395;42.032;-8.634;2023-10-13T09:22:45;76059.69;;;-148.63;74.49
61528;BME280;47395;42.032;-8.634;2023-10-13T09:25:15;76065.69;;;-148.63;76.56
61528;BME280;47395;42.032;-8.634;2023-10-13T09:27:20;76073.69;;;-148.63;74.68
61528;BME280;47395;42.032;-8.634;2023-10-13T09:29:22;76069.69;;;-148.63;75.35
61528;BME280;47395;42.032;-8.634;2023-10-13T09:31:23;76069.69;;;-148.63;75.56
61528;BME280;47395;42.032;-8.634;2023-10-13T09:33:28;76093.72;;;-148.63;75.37
61528;BME280;47395;42.032;-8.634;2023-10-13T09:35:33;76101.72;;;-148.63;75.91
61528;BME280;47395;42.032;-8.634;2023-10-13T09:37:37;76109.72;;;-148.63;75.84
61528;BME280;47395;42.032;-8.634;2023-10-13T09:39:39;76099.72;;;-148.63;75.54
61528;BME280;47395;42.032;-8.634;2023-10-13T09:41:49;76087.72;;;-148.63;75.70
61528;BME280;47395;42.032;-8.634;2023-10-13T09:43:55;76079.69;;;-148.63;75.58
61528;BME280;47395;42.032;-8.634;2023-10-13T09:45:59;76073.69;;;-148.63;76.02
61528;BME280;47395;42.032;-8.634;2023-10-13T09:48:04;76073.69;;;-148.63;76.01
61528;BME280;47395;42.032;-8.634;2023-10-13T09:50:19;76053.69;;;-148.63;75.92
61528;BME280;47395;42.032;-8.634;2023-10-13T09:52:27;76055.69;;;-148.63;75.30
61528;BME280;47395;42.032;-8.634;2023-10-13T09:54:38;76065.69;;;-148.63;76.31
61528;BME280;47395;42.032;-8.634;2023-10-13T09:57:08;76077.69;;;-148.63;75.80
61528;BME280;47395;42.032;-8.634;2023-10-13T09:59:15;76059.69;;;-148.63;75.72
61528;BME280;47395;42.032;-8.634;2023-10-13T10:01:29;76045.69;;;-148.63;75.57
61528;BME280;47395;42.032;-8.634;2023-10-13T10:03:48;76051.69;;;-148.63;75.53
61528;BME280;47395;42.032;-8.634;2023-10-13T10:06:10;76039.69;;;-148.63;75.91
61528;BME280;47395;42.032;-8.634;2023-10-13T10:08:28;76011.69;;;-148.63;75.33
61528;BME280;47395;42.032;-8.634;2023-10-13T10:13:35;75911.63;;;-148.63;74.55
61528;BME280;47395;42.032;-8.634;2023-10-13T10:15:43;75861.63;;;-148.63;74.04
61528;BME280;47395;42.032;-8.634;2023-10-13T10:17:45;75823.59;;;-148.63;73.82
61528;BME280;47395;42.032;-8.634;2023-10-13T10:19:51;75839.59;;;-148.63;72.10
61528;BME280;47395;42.032;-8.634;2023-10-13T10:22:05;75833.59;;;-148.63;71.00
61528;BME280;47395;42.032;-8.634;2023-10-13T10:24:25;75797.59;;;-148.63;71.13
61528;BME280;47395;42.032;-8.634;2023-10-13T10:26:31;75753.56;;;-148.63;69.90
61528;BME280;47395;42.032;-8.634;2023-10-13T10:28:36;75769.59;;;-148.63;69.08
61528;BME280;47395;42.032;-8.634;2023-10-13T10:30:38;75735.56;;;-148.63;68.56
61528;BME280;47395;42.032;-8.634;2023-10-13T10:32:39;75759.56;;;-148.63;68.28
61528;BME280;47395;42.032;-8.634;2023-10-13T10:34:49;75743.56;;;-148.63;67.91
61528;BME280;47395;42.032;-8.634;2023-10-13T10:36:54;75727.56;;;-148.63;67.22
61528;BME280;47395;42.032;-8.634;2023-10-13T10:38:58;75747.56;;;-148.63;66.83
61528;BME280;47395;42.032;-8.634;2023-10-13T10:41:06;75747.56;;;-148.63;67.40
61528;BME280;47395;42.032;-8.634;2023-10-13T10:43:06;75711.56;;;-148.63;66.66
61528;BME280;47395;42.032;-8.634;2023-10-13T10:45:17;75663.53;;;-148.63;64.72
61528;BME280;47395;42.032;-8.634;2023-10-13T10:47:22;75671.53;;;-148.63;62.79
61528;BME280;47395;42.032;-8.634;2023-10-13T10:49:38;75629.53;;;-148.63;62.35
61528;BME280;47395;42.032;-8.634;2023-10-13T10:51:45;75605.53;;;-148.63;62.54
61528;BME280;47395;42.032;-8.634;2023-10-13T10:53:46;75539.50;;;-148.63;61.15
61528;BME280;47395;42.032;-8.634;2023-10-13T10:55:49;75597.53;;;-148.63;62.75
61528;BME280;47395;42.032;-8.634;2023-10-13T10:57:58;75639.53;;;-148.63;62.50
61528;BME280;47395;42.032;-8.634;2023-10-13T10:59:59;75671.53;;;-148.63;63.16
61528;BME280;47395;42.032;-8.634;2023-10-13T11:02:15;75709.56;;;-148.63;64.19
61528;BME280;47395;42.032;-8.634;2023-10-13T11:04:19;75741.56;;;-148.63;64.86
61528;BME280;47395;42.032;-8.634;2023-10-13T11:06:35;75745.56;;;-148.63;65.36